Time;durP1;ratioP1;P1;durP2;ratioP2;P2;SDS_P1;SDS_P2;PMS_P1;PMS_P2;Temp;Humidity;BMP_temperature;BMP_pressure;BME280_temperature;BME280_humidity;BME280_pressure;Samples;Min_cycle;Max_cycle;Signal;HPM_P1;HPM_P2
2021/12/06 00:00:37;;;;;;;80.60;34.65;;;;;;;3.38;100.00;100895.97;5009958;28;20083;-69
2021/12/06 00:03:05;;;;;;;77.05;33.22;;;;;;;3.36;100.00;100901.47;5024991;28;20052;-74
2021/12/06 00:05:31;;;;;;;79.25;34.63;;;;;;;3.34;100.00;100903.50;5011702;28;20431;-74
2021/12/06 00:07:57;;;;;;;76.97;35.10;;;;;;;3.46;100.00;100921.50;5014933;28;20039;-75
2021/12/06 00:10:25;;;;;;;84.32;34.97;;;;;;;3.50;100.00;100922.75;5012103;28;20564;-74
2021/12/06 00:12:51;;;;;;;79.38;35.50;;;;;;;3.53;100.00;100923.19;5009890;28;20038;-74
2021/12/06 00:15:16;;;;;;;82.80;36.15;;;;;;;3.53;100.00;100925.84;5011758;28;20040;-74
2021/12/06 00:17:44;;;;;;;84.97;36.88;;;;;;;3.54;100.00;100931.97;5010915;28;20043;-74
2021/12/06 00:20:12;;;;;;;87.93;36.75;;;;;;;3.44;100.00;100937.63;5011860;28;20132;-75
2021/12/06 00:22:37;;;;;;;87.38;35.42;;;;;;;3.44;100.00;100927.03;5011463;28;20029;-74
2021/12/06 00:25:03;;;;;;;85.88;35.85;;;;;;;3.43;100.00;100940.47;5026085;28;20029;-75
2021/12/06 00:27:29;;;;;;;85.50;36.80;;;;;;;3.47;100.00;100939.88;5018050;28;20033;-74
2021/12/06 00:29:59;;;;;;;77.63;35.65;;;;;;;3.45;100.00;100941.91;5011312;28;20095;-74
2021/12/06 00:32:25;;;;;;;86.38;36.13;;;;;;;3.40;100.00;100949.63;5011321;28;20461;-74
2021/12/06 00:34:51;;;;;;;82.47;36.63;;;;;;;3.32;100.00;100955.91;5011130;28;20033;-74
2021/12/06 00:39:44;;;;;;;83.80;35.42;;;;;;;3.23;100.00;100945.66;5026281;28;20029;-74
2021/12/06 00:42:14;;;;;;;82.63;33.65;;;;;;;3.22;100.00;100938.72;5010523;28;20111;-74
2021/12/06 00:44:40;;;;;;;84.10;33.78;;;;;;;3.19;100.00;100952.38;5011587;28;20033;-73
2021/12/06 00:47:08;;;;;;;70.05;32.15;;;;;;;3.19;100.00;100961.13;5010337;28;20036;-73
2021/12/06 00:49:33;;;;;;;74.97;33.75;;;;;;;3.17;100.00;100957.03;5009452;28;20024;-74
2021/12/06 00:51:59;;;;;;;72.90;32.60;;;;;;;3.18;100.00;100953.38;5010048;28;20052;-74
2021/12/06 00:54:34;;;;;;;78.45;34.30;;;;;;;3.12;100.00;100956.81;5011173;28;20127;-73
2021/12/06 00:57:04;;;;;;;79.57;33.67;;;;;;;3.04;100.00;100961.22;5010736;28;20530;-73
2021/12/06 00:59:30;;;;;;;78.30;34.38;;;;;;;2.96;100.00;100958.72;5016546;28;20658;-74
2021/12/06 01:02:00;;;;;;;85.78;35.03;;;;;;;2.88;100.00;100960.69;5003740;28;20076;-74
2021/12/06 01:04:27;;;;;;;79.93;34.60;;;;;;;2.78;100.00;100963.69;5009739;28;20485;-68
2021/12/06 01:06:56;;;;;;;84.05;35.80;;;;;;;2.75;100.00;100966.69;5010289;28;20375;-68
2021/12/06 01:09:26;;;;;;;79.20;34.03;;;;;;;2.75;100.00;100964.84;5010769;28;20076;-68
2021/12/06 01:11:59;;;;;;;84.28;33.88;;;;;;;2.70;100.00;100977.88;5010600;28;20077;-68
2021/12/06 01:14:27;;;;;;;86.07;35.38;;;;;;;2.71;100.00;100979.50;5009526;28;20113;-68
2021/12/06 01:16:55;;;;;;;90.57;35.35;;;;;;;2.77;100.00;100986.69;5010160;28;20448;-69
2021/12/06 01:19:29;;;;;;;78.90;34.85;;;;;;;2.81;100.00;100979.19;5007683;28;20041;-69
2021/12/06 01:22:45;;;;;;;85.05;36.90;;;;;;;2.92;100.00;100972.53;5009400;28;21992;-69
2021/12/06 01:24:59;;;;;;;79.78;35.67;;;;;;;3.07;100.00;100982.03;5006651;28;20037;-69
2021/12/06 01:33:16;;;;;;;79.85;35.05;;;;;;;3.28;100.00;101004.22;5008281;28;20029;-69
2021/12/06 01:41:14;;;;;;;82.18;35.50;;;;;;;3.32;100.00;101013.44;5013961;28;20033;-69
2021/12/06 01:44:14;;;;;;;75.22;34.25;;;;;;;3.36;100.00;101012.03;5007482;28;20397;-69
2021/12/06 01:46:48;;;;;;;77.75;33.20;;;;;;;3.42;100.00;101008.63;4968784;28;20124;-68
2021/12/06 01:49:14;;;;;;;76.15;34.03;;;;;;;3.36;100.00;101014.69;5008627;28;20029;-68
2021/12/06 01:51:41;;;;;;;71.82;32.92;;;;;;;3.31;100.00;101006.50;5024079;28;20141;-69
2021/12/06 01:54:12;;;;;;;76.00;32.80;;;;;;;3.28;100.00;101007.69;5008880;28;20059;-68
2021/12/06 01:56:38;;;;;;;70.03;31.27;;;;;;;3.23;100.00;101002.16;5022785;28;20208;-69
2021/12/06 01:59:04;;;;;;;69.57;31.42;;;;;;;3.26;100.00;101004.44;5008400;28;21122;-68
2021/12/06 02:01:30;;;;;;;72.60;31.90;;;;;;;3.22;100.00;101005.00;5009009;28;20536;-69
2021/12/06 02:03:59;;;;;;;71.30;31.92;;;;;;;3.19;100.00;100998.25;4990141;28;20043;-68
2021/12/06 02:06:25;;;;;;;69.18;31.60;;;;;;;3.15;100.00;100998.81;5002454;28;20537;-68
2021/12/06 02:08:51;;;;;;;74.00;32.08;;;;;;;3.22;100.00;100997.84;5014472;28;20031;-69
2021/12/06 02:11:17;;;;;;;69.82;30.52;;;;;;;3.28;100.00;101007.69;4994429;28;20041;-69
2021/12/06 02:13:50;;;;;;;70.13;31.10;;;;;;;3.26;100.00;101003.63;5008988;28;20033;-68
2021/12/06 02:16:20;;;;;;;71.85;29.98;;;;;;;3.24;100.00;100997.66;5008305;28;20219;-69
2021/12/06 02:18:50;;;;;;;68.75;30.60;;;;;;;3.29;100.00;101005.88;5008666;28;20048;-68
2021/12/06 02:21:18;;;;;;;67.72;29.70;;;;;;;3.28;100.00;101010.34;5010712;28;20034;-68
2021/12/06 02:23:48;;;;;;;67.68;30.80;;;;;;;3.25;100.00;101008.06;5009170;28;20114;-68
2021/12/06 02:26:14;;;;;;;68.85;31.13;;;;;;;3.24;100.00;101002.97;5009567;28;20026;-69
2021/12/06 02:28:44;;;;;;;70.30;30.90;;;;;;;3.19;100.00;100997.44;5023575;28;20082;-69
2021/12/06 02:31:10;;;;;;;73.75;32.35;;;;;;;3.23;100.00;100998.69;5008245;28;20607;-68
2021/12/06 02:33:36;;;;;;;72.60;31.42;;;;;;;3.27;100.00;101005.25;5017947;28;20026;-69
2021/12/06 02:36:03;;;;;;;67.30;29.63;;;;;;;3.25;100.00;100996.66;5013511;28;20692;-68
2021/12/06 02:38:29;;;;;;;65.80;30.30;;;;;;;3.25;100.00;101001.94;5014869;28;20303;-69
2021/12/06 02:40:54;;;;;;;66.78;32.63;;;;;;;3.30;100.00;101002.19;5012037;28;21788;-68
2021/12/06 02:43:25;;;;;;;69.18;31.00;;;;;;;3.31;100.00;100995.88;5016062;28;20044;-68
2021/12/06 02:45:50;;;;;;;75.95;31.85;;;;;;;3.30;100.00;100991.59;5018675;28;20172;-68
2021/12/06 02:48:21;;;;;;;73.20;31.23;;;;;;;3.24;100.00;100987.88;5012759;28;20106;-68
2021/12/06 02:50:52;;;;;;;71.60;30.33;;;;;;;3.16;100.00;100992.50;5027141;28;20052;-69
2021/12/06 02:53:20;;;;;;;71.07;30.25;;;;;;;3.20;100.00;100999.91;5012883;28;20044;-69
2021/12/06 02:55:53;;;;;;;72.32;31.38;;;;;;;3.21;100.00;101001.53;5015060;28;20436;-69
2021/12/06 03:01:13;;;;;;;71.78;31.27;;;;;;;3.24;100.00;100995.00;5016310;28;20051;-68
2021/12/06 03:03:40;;;;;;;72.80;31.20;;;;;;;3.24;100.00;100985.22;5018536;28;20060;-69
2021/12/06 03:06:11;;;;;;;72.07;31.30;;;;;;;3.05;100.00;100962.88;5020979;28;20037;-68
2021/12/06 03:08:42;;;;;;;70.97;31.63;;;;;;;3.07;100.00;100968.78;5001785;28;20033;-68
2021/12/06 03:11:16;;;;;;;71.53;31.57;;;;;;;3.11;100.00;100979.03;5017761;28;20029;-70
2021/12/06 03:13:42;;;;;;;74.32;31.75;;;;;;;3.03;100.00;100980.81;5011956;28;20034;-69
2021/12/06 03:16:07;;;;;;;74.25;31.42;;;;;;;3.02;100.00;100995.06;5018423;28;20456;-70
2021/12/06 03:18:38;;;;;;;79.28;32.30;;;;;;;2.90;100.00;100983.34;5018030;28;20464;-69
2021/12/06 03:21:08;;;;;;;74.38;32.15;;;;;;;2.99;100.00;101000.72;5018051;28;20045;-69
2021/12/06 03:23:36;;;;;;;76.60;32.28;;;;;;;3.02;100.00;100997.72;5017342;28;21838;-69
2021/12/06 03:26:05;;;;;;;75.07;32.20;;;;;;;3.03;100.00;100986.09;5012376;28;20033;-69
2021/12/06 03:28:42;;;;;;;74.65;30.98;;;;;;;3.02;100.00;100984.47;5016756;28;20025;-69
2021/12/06 03:31:11;;;;;;;75.60;32.10;;;;;;;2.95;100.00;100980.94;5013038;28;20412;-68
2021/12/06 03:33:40;;;;;;;82.63;34.65;;;;;;;2.91;100.00;100979.66;5027060;28;20207;-68
2021/12/06 03:36:07;;;;;;;87.03;32.88;;;;;;;2.80;100.00;100980.19;5012073;28;20032;-69
2021/12/06 03:38:36;;;;;;;78.60;33.70;;;;;;;2.93;100.00;100987.41;5005502;28;20099;-68
2021/12/06 03:41:02;;;;;;;78.53;33.50;;;;;;;2.91;100.00;100986.81;5011574;28;20060;-69
2021/12/06 03:43:31;;;;;;;81.28;33.45;;;;;;;2.86;100.00;100976.78;5012315;28;20039;-69
2021/12/06 03:45:59;;;;;;;79.68;33.22;;;;;;;2.98;100.00;100985.84;5011161;28;20030;-69
2021/12/06 03:48:24;;;;;;;85.32;34.03;;;;;;;2.92;100.00;100978.66;5010718;28;20420;-68
2021/12/06 03:50:52;;;;;;;84.22;34.00;;;;;;;3.02;100.00;100981.00;5010830;28;20036;-68
2021/12/06 03:53:18;;;;;;;87.65;34.47;;;;;;;3.04;100.00;100977.13;5011698;28;20094;-68
2021/12/06 03:55:44;;;;;;;81.80;34.30;;;;;;;3.05;100.00;100983.25;5012684;28;20033;-68
2021/12/06 03:58:12;;;;;;;86.75;35.10;;;;;;;3.04;100.00;100990.38;5010442;28;20052;-68
2021/12/06 04:00:37;;;;;;;84.05;34.33;;;;;;;3.04;100.00;100982.44;5011566;28;20745;-68
2021/12/06 04:03:15;;;;;;;83.72;34.78;;;;;;;3.01;100.00;100974.88;5011051;28;20603;-68
2021/12/06 04:05:43;;;;;;;85.93;33.42;;;;;;;2.94;100.00;100981.94;5012148;28;20193;-69
2021/12/06 04:08:09;;;;;;;79.22;34.20;;;;;;;2.98;100.00;100972.59;5016534;28;20092;-68
2021/12/06 04:10:34;;;;;;;83.35;34.75;;;;;;;3.00;100.00;100973.22;5015989;28;20043;-69
2021/12/06 04:13:00;;;;;;;87.15;34.75;;;;;;;2.98;100.00;100977.06;5011341;28;20478;-68
2021/12/06 04:15:30;;;;;;;79.38;32.90;;;;;;;2.99;100.00;100981.34;5009561;28;20094;-68
2021/12/06 04:17:59;;;;;;;80.32;33.63;;;;;;;2.98;100.00;100980.53;5010508;28;21999;-68
2021/12/06 04:20:26;;;;;;;85.18;34.17;;;;;;;2.97;100.00;100984.22;5010615;28;20510;-68
2021/12/06 04:22:52;;;;;;;90.70;36.80;;;;;;;2.97;100.00;101000.09;5009935;28;20484;-68
2021/12/06 04:25:18;;;;;;;84.90;34.95;;;;;;;2.90;100.00;100993.13;5011786;28;20037;-68
2021/12/06 04:27:51;;;;;;;93.63;36.75;;;;;;;2.98;100.00;101004.41;5010054;28;20477;-68
2021/12/06 04:30:18;;;;;;;98.53;37.80;;;;;;;3.00;100.00;100998.91;5010053;28;20025;-68
2021/12/06 04:32:46;;;;;;;95.45;37.08;;;;;;;2.98;100.00;100993.78;5010578;28;20055;-69
2021/12/06 04:35:11;;;;;;;96.65;36.42;;;;;;;3.07;100.00;101011.19;5011350;28;20603;-68
2021/12/06 04:37:37;;;;;;;92.38;35.38;;;;;;;3.08;100.00;101002.22;5009817;28;20036;-69
2021/12/06 04:40:13;;;;;;;88.55;35.25;;;;;;;3.00;100.00;100989.13;5011007;28;20179;-69
2021/12/06 04:42:41;;;;;;;81.63;33.53;;;;;;;3.05;100.00;100994.66;5025645;28;20029;-69
2021/12/06 04:45:10;;;;;;;78.00;33.22;;;;;;;2.97;100.00;100986.03;5011009;28;20454;-69
2021/12/06 04:47:36;;;;;;;85.57;32.72;;;;;;;2.79;100.00;100975.91;5008726;28;20282;-68
2021/12/06 04:50:04;;;;;;;82.05;33.92;;;;;;;2.72;100.00;100975.03;4997863;28;20037;-69
2021/12/06 04:52:34;;;;;;;87.43;35.80;;;;;;;2.63;100.00;100973.53;5009923;28;20048;-69
2021/12/06 04:55:01;;;;;;;90.22;34.58;;;;;;;2.55;100.00;100978.94;5015050;28;20486;-69
2021/12/06 04:57:29;;;;;;;86.25;32.78;;;;;;;2.44;100.00;100978.44;5008687;28;21944;-68
2021/12/06 05:00:00;;;;;;;83.90;33.58;;;;;;;2.25;100.00;100974.56;5010220;28;20049;-68
2021/12/06 05:02:29;;;;;;;79.43;32.03;;;;;;;2.22;100.00;100979.41;5018858;28;20488;-69
2021/12/06 05:05:01;;;;;;;88.97;33.80;;;;;;;2.15;100.00;100978.50;5009219;28;20068;-68
2021/12/06 05:07:37;;;;;;;97.03;35.65;;;;;;;2.15;100.00;100981.97;5003268;28;20029;-69
2021/12/06 05:10:06;;;;;;;95.03;36.22;;;;;;;2.16;100.00;100980.97;5009879;28;20156;-68
2021/12/06 05:12:33;;;;;;;97.60;37.15;;;;;;;2.21;100.00;100996.31;5013297;28;20032;-68
2021/12/06 05:15:03;;;;;;;99.43;37.05;;;;;;;2.32;100.00;100992.34;4998441;28;20025;-69
2021/12/06 05:17:29;;;;;;;102.13;37.88;;;;;;;2.36;100.00;101004.19;5009925;28;20497;-68
2021/12/06 05:19:55;;;;;;;97.00;38.90;;;;;;;2.27;100.00;100987.59;5008480;28;20134;-68
2021/12/06 05:22:21;;;;;;;111.05;38.08;;;;;;;2.39;100.00;101002.00;5009968;28;20536;-68
2021/12/06 05:24:47;;;;;;;101.72;37.45;;;;;;;2.45;100.00;100995.97;5014121;28;20315;-68
2021/12/06 05:27:12;;;;;;;107.45;40.25;;;;;;;2.44;100.00;100990.84;5012892;28;20029;-68
2021/12/06 05:29:44;;;;;;;125.25;44.85;;;;;;;2.48;100.00;100990.28;5024536;28;20119;-69
2021/12/06 05:32:09;;;;;;;153.18;53.10;;;;;;;2.65;100.00;101005.94;5009916;28;20029;-69
2021/12/06 05:34:41;;;;;;;146.65;54.50;;;;;;;2.73;100.00;101009.28;5015486;28;20041;-69
2021/12/06 05:37:09;;;;;;;147.70;48.90;;;;;;;2.77;100.00;101015.03;5010271;28;20154;-69
2021/12/06 05:39:35;;;;;;;145.70;50.20;;;;;;;2.84;100.00;101010.59;5009201;28;20520;-68
2021/12/06 05:42:08;;;;;;;144.50;49.35;;;;;;;2.84;100.00;101015.06;5010448;28;20036;-69
2021/12/06 05:44:34;;;;;;;145.98;49.53;;;;;;;2.81;100.00;101008.31;5009721;28;20037;-69
2021/12/06 05:47:00;;;;;;;140.18;49.30;;;;;;;2.76;100.00;101006.22;5002414;28;20037;-68
2021/12/06 05:49:28;;;;;;;142.88;49.17;;;;;;;2.67;100.00;101003.91;5022314;28;20138;-68
2021/12/06 05:51:56;;;;;;;140.63;47.88;;;;;;;2.53;100.00;100998.50;5010061;28;20029;-70
2021/12/06 05:54:24;;;;;;;150.80;49.10;;;;;;;2.41;100.00;100985.91;5009680;28;20489;-68
2021/12/06 05:56:51;;;;;;;143.27;47.22;;;;;;;2.33;100.00;100991.34;5009477;28;20033;-68
2021/12/06 05:59:16;;;;;;;133.80;45.95;;;;;;;2.26;100.00;100991.25;5008719;28;20264;-70
2021/12/06 06:01:47;;;;;;;141.75;46.53;;;;;;;2.16;100.00;100994.19;5008163;28;20048;-68
2021/12/06 06:04:13;;;;;;;139.20;45.42;;;;;;;2.14;100.00;100990.13;5009622;28;20602;-68
2021/12/06 06:06:38;;;;;;;142.85;46.67;;;;;;;2.05;100.00;100994.69;5009292;28;20406;-68
2021/12/06 06:09:08;;;;;;;144.68;48.53;;;;;;;2.00;100.00;100996.25;5010229;28;20148;-69
2021/12/06 06:11:37;;;;;;;147.40;46.22;;;;;;;2.04;100.00;101003.66;5012317;28;20040;-69
2021/12/06 06:14:06;;;;;;;138.85;46.72;;;;;;;2.11;100.00;101012.47;5009915;28;20041;-69
2021/12/06 06:16:47;;;;;;;174.18;50.70;;;;;;;2.25;100.00;101010.78;5013888;28;20063;-68
2021/12/06 06:19:13;;;;;;;144.82;49.65;;;;;;;2.34;100.00;101009.66;5011483;28;20412;-70
2021/12/06 06:21:39;;;;;;;144.68;47.22;;;;;;;2.51;100.00;101016.38;5014227;28;20455;-68
2021/12/06 06:24:07;;;;;;;149.40;52.58;;;;;;;2.57;100.00;101006.06;5013095;28;20041;-69
2021/12/06 06:26:32;;;;;;;145.10;46.80;;;;;;;2.62;100.00;101001.03;5012894;28;20037;-70
2021/12/06 06:28:58;;;;;;;146.65;48.40;;;;;;;2.72;100.00;101012.13;5015824;28;20496;-69
2021/12/06 06:31:23;;;;;;;139.25;48.25;;;;;;;2.74;100.00;101015.38;5013092;28;20155;-68
2021/12/06 06:33:49;;;;;;;138.95;49.03;;;;;;;2.74;100.00;101015.38;5012314;28;20033;-70
2021/12/06 06:36:19;;;;;;;140.48;49.38;;;;;;;2.73;100.00;101011.09;5012982;28;20501;-69
2021/12/06 06:38:47;;;;;;;155.55;49.88;;;;;;;2.72;100.00;101022.72;5012793;28;20044;-68
2021/12/06 06:41:14;;;;;;;146.57;48.40;;;;;;;2.68;100.00;101016.13;5011420;28;20128;-67
2021/12/06 06:43:40;;;;;;;138.30;48.05;;;;;;;2.72;100.00;101015.59;5012845;28;20235;-67
2021/12/06 06:46:09;;;;;;;144.20;47.25;;;;;;;2.76;100.00;101029.25;5012795;28;20738;-68
2021/12/06 06:48:34;;;;;;;126.47;43.88;;;;;;;2.69;100.00;101012.50;5012353;28;20040;-69
2021/12/06 06:51:03;;;;;;;129.23;43.75;;;;;;;2.73;100.00;101011.91;5012465;28;20053;-72
2021/12/06 06:53:29;;;;;;;135.30;42.60;;;;;;;2.75;100.00;101017.84;5017297;28;20025;-73
2021/12/06 06:55:55;;;;;;;123.75;40.83;;;;;;;2.66;100.00;101002.28;5015081;28;20056;-73
2021/12/06 06:58:21;;;;;;;125.97;42.58;;;;;;;2.70;100.00;101016.78;5014539;28;20199;-73
2021/12/06 07:00:46;;;;;;;133.40;44.42;;;;;;;2.62;100.00;101011.63;4995814;28;20041;-73
2021/12/06 07:03:12;;;;;;;136.98;45.47;;;;;;;2.62;100.00;101006.31;5015231;28;20049;-73
2021/12/06 07:05:38;;;;;;;137.93;46.88;;;;;;;2.58;100.00;100999.75;5010122;28;20082;-72
2021/12/06 07:08:04;;;;;;;143.10;47.42;;;;;;;2.55;100.00;101000.13;5013885;28;20090;-73
2021/12/06 07:10:34;;;;;;;147.25;45.72;;;;;;;2.57;100.00;100995.44;5028640;28;20165;-73
2021/12/06 07:13:03;;;;;;;151.18;47.10;;;;;;;2.49;100.00;100986.63;5012406;28;20506;-73
2021/12/06 07:15:35;;;;;;;155.55;47.53;;;;;;;2.68;100.00;100997.59;5012766;28;20163;-72
2021/12/06 07:18:05;;;;;;;158.25;47.05;;;;;;;2.74;100.00;100988.91;5026656;28;20083;-72
2021/12/06 07:20:33;;;;;;;147.88;47.45;;;;;;;2.77;100.00;100993.84;5010306;28;20021;-72
2021/12/06 07:23:00;;;;;;;155.63;49.33;;;;;;;2.70;100.00;100990.28;5012701;28;20090;-73
2021/12/06 07:25:29;;;;;;;173.68;54.13;;;;;;;2.77;100.00;100994.66;5021377;28;20044;-73
2021/12/06 07:27:58;;;;;;;161.65;52.88;;;;;;;2.78;100.00;100996.28;5011985;28;20026;-73
2021/12/06 07:30:26;;;;;;;162.30;50.40;;;;;;;2.85;100.00;101000.81;5006680;28;20036;-73
2021/12/06 07:32:52;;;;;;;157.52;48.72;;;;;;;2.88;100.00;101003.91;5014211;28;20216;-73
2021/12/06 07:35:18;;;;;;;172.15;49.22;;;;;;;2.86;100.00;101002.47;5021718;28;21091;-73
2021/12/06 07:37:44;;;;;;;168.52;49.65;;;;;;;2.90;100.00;100993.94;5012844;28;20864;-73
2021/12/06 07:40:11;;;;;;;173.43;51.08;;;;;;;2.90;100.00;100998.41;5014171;28;20049;-73
2021/12/06 07:42:37;;;;;;;161.38;50.58;;;;;;;2.96;100.00;100987.88;5016508;28;20535;-72
2021/12/06 07:45:08;;;;;;;168.77;51.00;;;;;;;2.94;100.00;100989.91;5013544;28;20037;-73
2021/12/06 07:47:38;;;;;;;164.95;50.08;;;;;;;2.93;100.00;100998.03;5013698;28;20037;-74
2021/12/06 07:50:12;;;;;;;165.13;53.17;;;;;;;2.92;100.00;101005.16;5020993;28;20872;-73
2021/12/06 07:52:41;;;;;;;162.35;50.00;;;;;;;2.94;100.00;100995.19;5017927;28;20037;-72
2021/12/06 07:55:09;;;;;;;136.80;45.53;;;;;;;2.72;100.00;100985.63;5018334;28;20041;-72
2021/12/06 07:57:37;;;;;;;126.20;44.50;;;;;;;2.74;100.00;100988.91;5014059;28;20045;-73
2021/12/06 08:00:11;;;;;;;134.60;46.85;;;;;;;2.70;100.00;100987.66;5012379;28;20083;-73
2021/12/06 08:02:37;;;;;;;131.65;44.03;;;;;;;2.65;100.00;100993.50;5022181;28;20407;-75
2021/12/06 08:07:50;;;;;;;125.78;40.97;;;;;;;2.52;100.00;101001.31;5013277;28;20151;-74
2021/12/06 08:10:18;;;;;;;128.63;42.70;;;;;;;2.37;100.00;101006.69;5011880;28;20765;-74
2021/12/06 08:12:49;;;;;;;141.27;46.78;;;;;;;2.35;100.00;101003.38;5012422;28;20044;-73
2021/12/06 08:15:14;;;;;;;135.35;47.83;;;;;;;2.46;100.00;100997.59;5011220;28;20669;-72
2021/12/06 08:17:42;;;;;;;138.25;48.08;;;;;;;2.40;100.00;101001.00;5012701;28;20121;-70
2021/12/06 08:20:09;;;;;;;150.93;51.40;;;;;;;2.37;100.00;101001.38;5011145;28;20253;-69
2021/12/06 08:22:37;;;;;;;146.10;43.72;;;;;;;2.22;100.00;101001.41;5011361;28;20476;-69
2021/12/06 08:25:04;;;;;;;144.85;47.05;;;;;;;2.18;100.00;101000.13;5011137;28;20116;-69
2021/12/06 08:27:29;;;;;;;144.18;48.13;;;;;;;2.26;100.00;101015.06;4992821;28;20035;-69
2021/12/06 08:29:55;;;;;;;144.27;46.33;;;;;;;2.32;100.00;101006.41;5009771;28;20488;-69
2021/12/06 08:32:20;;;;;;;187.57;54.10;;;;;;;2.38;100.00;101010.97;5009280;28;20079;-69
2021/12/06 08:34:46;;;;;;;192.10;61.75;;;;;;;2.41;100.00;101012.41;5011064;28;20500;-69
2021/12/06 08:37:14;;;;;;;205.15;53.63;;;;;;;2.38;100.00;101000.38;5009618;28;20112;-70
2021/12/06 08:39:40;;;;;;;184.43;48.35;;;;;;;2.40;100.00;101001.00;5009396;28;20152;-69
2021/12/06 08:42:06;;;;;;;165.93;46.38;;;;;;;2.46;100.00;101000.25;5025052;28;20037;-69
2021/12/06 08:44:34;;;;;;;158.63;49.08;;;;;;;2.46;100.00;101004.72;5010771;28;20361;-69
2021/12/06 08:47:03;;;;;;;142.77;48.53;;;;;;;2.53;100.00;101019.69;5025433;28;20045;-69
2021/12/06 08:49:33;;;;;;;153.45;50.85;;;;;;;2.59;100.00;101009.31;4997951;28;20076;-69
2021/12/06 08:52:01;;;;;;;135.27;46.47;;;;;;;2.66;100.00;101007.56;5010970;28;20523;-68
2021/12/06 08:54:29;;;;;;;164.05;51.33;;;;;;;2.69;100.00;101002.72;5009822;28;20134;-69
2021/12/06 08:56:56;;;;;;;190.18;52.40;;;;;;;2.73;100.00;101003.16;5019403;28;20041;-69
2021/12/06 08:59:25;;;;;;;170.88;51.00;;;;;;;2.70;100.00;100991.13;5010302;28;20096;-69
2021/12/06 09:01:54;;;;;;;189.68;53.08;;;;;;;2.69;100.00;100984.19;5008802;28;20618;-68
2021/12/06 09:04:22;;;;;;;187.27;52.95;;;;;;;2.78;100.00;100988.34;5007846;28;20356;-69
2021/12/06 09:06:50;;;;;;;198.45;51.53;;;;;;;2.86;100.00;101003.28;5008659;28;20041;-69
2021/12/06 09:09:16;;;;;;;157.27;50.00;;;;;;;2.86;100.00;100983.91;5008523;28;20091;-69
2021/12/06 09:11:43;;;;;;;141.93;49.88;;;;;;;2.91;100.00;100987.63;5001517;28;20037;-69
2021/12/06 09:14:09;;;;;;;143.88;50.95;;;;;;;2.95;100.00;100980.94;5008394;28;20033;-70
2021/12/06 09:16:38;;;;;;;149.35;53.30;;;;;;;3.15;100.00;100990.88;5006328;28;20182;-70
2021/12/06 09:19:09;;;;;;;152.65;54.28;;;;;;;3.20;100.00;100993.78;5013518;28;20037;-69
2021/12/06 09:21:37;;;;;;;153.93;52.78;;;;;;;3.24;100.00;101005.63;5007296;28;20115;-68
2021/12/06 09:24:09;;;;;;;193.23;56.20;;;;;;;3.23;100.00;101009.28;5006827;28;20401;-71
2021/12/06 09:26:35;;;;;;;152.70;55.53;;;;;;;3.05;100.00;101007.94;5012788;28;20870;-71
2021/12/06 09:29:03;;;;;;;151.35;49.13;;;;;;;3.02;100.00;101007.50;5007509;28;20271;-70
2021/12/06 09:31:31;;;;;;;130.70;46.92;;;;;;;2.98;100.00;101007.06;5008627;28;20056;-68
2021/12/06 09:33:57;;;;;;;140.90;49.95;;;;;;;3.00;100.00;101002.38;5007353;28;20525;-69
2021/12/06 09:36:23;;;;;;;145.27;53.40;;;;;;;3.09;100.00;101006.56;4991429;28;20112;-69
2021/12/06 09:38:51;;;;;;;142.93;50.63;;;;;;;3.15;100.00;100999.63;5007216;28;20727;-70
2021/12/06 09:41:25;;;;;;;151.88;53.05;;;;;;;3.16;100.00;100992.50;5008440;28;20111;-70
2021/12/06 09:43:54;;;;;;;158.30;54.30;;;;;;;3.19;100.00;100987.66;4998381;28;20057;-71
2021/12/06 09:46:20;;;;;;;164.35;55.20;;;;;;;3.20;100.00;100983.16;5007798;28;20025;-69
2021/12/06 09:48:48;;;;;;;152.30;52.83;;;;;;;3.22;100.00;100986.44;5017176;28;20060;-70
2021/12/06 09:51:26;;;;;;;145.20;54.40;;;;;;;3.18;100.00;100988.66;5013033;28;20033;-69
2021/12/06 09:53:55;;;;;;;133.93;48.25;;;;;;;3.15;100.00;100996.16;4994931;28;20222;-69
2021/12/06 09:56:24;;;;;;;126.15;46.03;;;;;;;3.21;100.00;101006.00;5007955;28;20450;-68
2021/12/06 09:58:54;;;;;;;140.88;50.25;;;;;;;3.21;100.00;100990.09;5005811;28;20372;-69
2021/12/06 10:01:26;;;;;;;157.18;53.30;;;;;;;3.30;100.00;100994.25;5007539;28;20992;-68
2021/12/06 10:03:53;;;;;;;;;;;;;;;3.33;100.00;100989.34;5008633;28;20041;-70
2021/12/06 10:06:23;;;;;;;255.32;76.85;;;;;;;3.34;100.00;100963.69;5005849;28;19927;-68
2021/12/06 10:08:50;;;;;;;165.90;58.35;;;;;;;3.37;100.00;100972.06;5005772;28;20064;-68
2021/12/06 10:11:18;;;;;;;135.45;49.20;;;;;;;3.34;100.00;100974.28;5006828;28;20045;-68
2021/12/06 10:13:44;;;;;;;142.82;48.80;;;;;;;3.32;100.00;100974.47;5006734;28;20037;-68
2021/12/06 10:16:10;;;;;;;135.13;49.60;;;;;;;3.32;100.00;100971.00;5007549;28;20120;-68
2021/12/06 10:18:36;;;;;;;120.45;43.90;;;;;;;3.04;100.00;100953.28;5006568;28;20450;-69
2021/12/06 10:21:03;;;;;;;142.85;53.58;;;;;;;3.18;100.00;100948.09;5012897;28;20095;-68
2021/12/06 10:23:32;;;;;;;130.10;46.75;;;;;;;3.25;100.00;100949.72;5016013;28;20479;-68
2021/12/06 10:26:00;;;;;;;144.32;48.42;;;;;;;3.24;100.00;100936.69;4989448;28;20087;-68
2021/12/06 10:28:29;;;;;;;138.35;49.33;;;;;;;3.23;100.00;100932.38;5001337;28;20033;-70
2021/12/06 10:31:00;;;;;;;139.73;50.25;;;;;;;3.25;100.00;100912.59;5021817;28;20043;-71
2021/12/06 10:33:31;;;;;;;136.77;50.50;;;;;;;3.30;100.00;100925.28;5003758;28;20067;-69
2021/12/06 10:36:02;;;;;;;122.35;47.60;;;;;;;3.14;100.00;100915.00;5008590;28;20098;-68
2021/12/06 10:38:32;;;;;;;116.70;46.22;;;;;;;3.23;100.00;100919.13;4996666;28;20328;-69
2021/12/06 10:41:06;;;;;;;128.80;48.22;;;;;;;3.19;100.00;100908.13;5005645;28;20044;-69
2021/12/06 10:43:32;;;;;;;141.05;49.17;;;;;;;3.16;100.00;100897.88;5007179;28;20051;-68
2021/12/06 10:45:59;;;;;;;137.82;47.67;;;;;;;3.09;100.00;100887.25;5006984;28;20570;-69
2021/12/06 10:48:33;;;;;;;157.05;53.55;;;;;;;3.17;100.00;100894.22;4993404;28;20545;-69
2021/12/06 10:51:04;;;;;;;145.15;51.10;;;;;;;3.11;100.00;100883.59;5006819;28;20025;-68
2021/12/06 10:53:42;;;;;;;160.93;55.70;;;;;;;3.24;100.00;100878.34;5006340;28;21920;-69
2021/12/06 10:56:24;;;;;;;144.35;51.13;;;;;;;3.15;100.00;100863.63;5011719;28;20045;-68
2021/12/06 10:58:53;;;;;;;133.25;48.80;;;;;;;3.25;100.00;100867.53;5006746;28;20076;-73
2021/12/06 11:01:33;;;;;;;133.85;51.08;;;;;;;3.30;100.00;100856.34;5025902;28;21967;-78
2021/12/06 11:04:04;;;;;;;142.30;50.45;;;;;;;3.39;100.00;100849.88;5016681;28;20164;-74
2021/12/06 11:06:41;;;;;;;128.30;46.47;;;;;;;3.46;100.00;100845.41;5009765;28;20169;-74
2021/12/06 11:09:07;;;;;;;130.48;48.65;;;;;;;3.62;100.00;100839.75;5018770;28;20377;-74
2021/12/06 11:11:39;;;;;;;130.23;50.10;;;;;;;3.71;100.00;100840.38;5010333;28;20116;-74
2021/12/06 11:14:13;;;;;;;138.40;50.78;;;;;;;3.77;100.00;100836.13;5025231;28;20033;-73
2021/12/06 11:16:42;;;;;;;123.05;47.58;;;;;;;3.83;100.00;100820.22;5012819;28;21362;-72
2021/12/06 11:19:14;;;;;;;117.20;47.47;;;;;;;3.93;100.00;100822.47;5011758;28;20319;-73
2021/12/06 11:22:07;;;;;;;107.43;45.20;;;;;;;4.00;100.00;100809.22;5025085;28;20037;-73
2021/12/06 11:24:39;;;;;;;117.47;47.15;;;;;;;3.96;100.00;100810.63;5011157;28;20051;-73
2021/12/06 11:27:17;;;;;;;137.00;57.70;;;;;;;4.00;100.00;100803.91;5027698;28;20586;-73
2021/12/06 11:29:50;;;;;;;113.90;49.13;;;;;;;4.11;100.00;100806.78;5014368;28;20041;-73